Time;durP1;ratioP1;P1;durP2;ratioP2;P2;SDS_P1;SDS_P2;PMS_P1;PMS_P2;Temp;Humidity;BMP_temperature;BMP_pressure;BME280_temperature;BME280_humidity;BME280_pressure;Samples;Min_cycle;Max_cycle;Signal;HPM_P1;HPM_P2
2023/06/29 00:01:45;;;;;;;19.02;14.40;;;24.90;99.00;;;;;;5041490;28;20199;-33
2023/06/29 00:04:20;;;;;;;19.33;15.25;;;24.90;98.80;;;;;;5042774;28;20191;-33
2023/06/29 00:06:52;;;;;;;20.20;15.10;;;24.90;98.80;;;;;;5041073;28;20228;-32
2023/06/29 00:09:24;;;;;;;20.25;14.45;;;24.90;98.80;;;;;;5043294;28;20691;-33
2023/06/29 00:11:52;;;;;;;19.90;14.95;;;24.90;98.90;;;;;;5040946;28;20204;-34
2023/06/29 00:14:19;;;;;;;17.73;15.07;;;24.90;98.90;;;;;;5040722;28;20208;-33
2023/06/29 00:16:50;;;;;;;21.52;15.75;;;24.90;98.90;;;;;;5040673;28;20224;-33
2023/06/29 00:19:20;;;;;;;19.30;15.75;;;24.90;98.90;;;;;;5042375;28;20232;-33
2023/06/29 00:21:48;;;;;;;22.88;15.75;;;24.90;98.90;;;;;;5040671;28;20291;-34
2023/06/29 00:24:20;;;;;;;19.83;14.52;;;24.80;98.90;;;;;;5042659;28;20527;-34
2023/06/29 00:26:47;;;;;;;19.38;15.43;;;24.90;99.00;;;;;;5042746;28;20215;-33
2023/06/29 00:29:14;;;;;;;20.20;15.25;;;24.80;98.90;;;;;;5040683;28;20682;-33
2023/06/29 00:31:46;;;;;;;23.45;15.00;;;24.80;99.00;;;;;;5041429;28;20354;-37
2023/06/29 00:34:20;;;;;;;18.20;14.45;;;24.80;99.00;;;;;;5042316;28;20649;-34
2023/06/29 00:36:51;;;;;;;18.60;15.32;;;24.80;99.00;;;;;;5042325;28;20228;-36
2023/06/29 00:39:21;;;;;;;19.40;14.57;;;24.80;99.10;;;;;;5041428;28;20204;-39
2023/06/29 00:41:55;;;;;;;20.30;14.90;;;24.80;99.10;;;;;;5044766;28;20345;-33
2023/06/29 00:44:22;;;;;;;18.77;15.48;;;24.80;99.10;;;;;;5046140;28;20208;-33
2023/06/29 00:46:52;;;;;;;18.25;15.02;;;24.80;99.10;;;;;;5044812;28;20200;-33
2023/06/29 00:49:24;;;;;;;22.80;15.80;;;24.80;99.20;;;;;;5045911;28;20212;-33
2023/06/29 00:51:57;;;;;;;19.77;15.35;;;24.70;99.10;;;;;;5046122;28;20695;-33
2023/06/29 00:54:27;;;;;;;19.05;15.27;;;24.80;99.20;;;;;;5046388;28;20295;-33
2023/06/29 00:56:58;;;;;;;20.30;15.30;;;24.70;99.20;;;;;;5046099;28;20297;-33
2023/06/29 00:59:30;;;;;;;19.30;15.43;;;24.70;99.20;;;;;;5078117;28;20783;-33
2023/06/29 01:01:57;;;;;;;21.65;15.60;;;24.70;99.20;;;;;;5044869;28;20711;-32
2023/06/29 01:04:25;;;;;;;21.90;15.63;;;24.70;99.30;;;;;;5045412;28;20239;-32
2023/06/29 01:07:04;;;;;;;20.85;15.63;;;24.70;99.30;;;;;;5045938;28;20224;-33
2023/06/29 01:09:33;;;;;;;19.85;15.40;;;24.70;99.40;;;;;;5044009;28;20760;-33
2023/06/29 01:12:04;;;;;;;21.60;15.75;;;24.70;99.30;;;;;;5045674;28;20212;-33
2023/06/29 01:14:33;;;;;;;19.77;14.63;;;24.70;99.30;;;;;;5045930;28;20204;-33
2023/06/29 01:17:06;;;;;;;18.23;14.20;;;24.70;99.40;;;;;;5045139;28;20228;-33
2023/06/29 01:19:34;;;;;;;18.42;14.93;;;24.70;99.40;;;;;;5043857;28;20291;-33
2023/06/29 01:22:17;;;;;;;18.30;14.50;;;24.70;99.40;;;;;;5045668;28;20254;-33
2023/06/29 01:24:47;;;;;;;18.58;14.68;;;24.60;99.50;;;;;;5046177;28;20204;-32
2023/06/29 01:27:15;;;;;;;19.30;14.73;;;24.60;99.30;;;;;;5045713;28;20274;-33
2023/06/29 01:29:42;;;;;;;18.33;14.80;;;24.60;99.40;;;;;;5045085;28;20295;-32
2023/06/29 01:32:14;;;;;;;18.33;14.95;;;24.60;99.40;;;;;;5045250;28;20573;-32
2023/06/29 01:34:41;;;;;;;19.63;14.73;;;24.60;99.70;;;;;;5043916;28;20212;-33
2023/06/29 01:37:13;;;;;;;18.45;15.05;;;24.50;99.40;;;;;;5043622;28;20228;-33
2023/06/29 01:40:03;;;;;;;20.80;14.82;;;24.50;99.50;;;;;;5045152;28;20211;-32
2023/06/29 01:42:34;;;;;;;18.75;14.50;;;24.50;99.60;;;;;;5043543;28;20224;-32
2023/06/29 01:45:06;;;;;;;18.38;14.00;;;24.50;99.50;;;;;;5044967;28;20243;-33
2023/06/29 01:47:34;;;;;;;21.02;15.45;;;24.50;99.50;;;;;;5045109;28;20306;-33
2023/06/29 01:50:07;;;;;;;17.38;14.70;;;24.50;99.50;;;;;;5059589;28;20623;-33
2023/06/29 01:52:37;;;;;;;19.27;14.88;;;24.50;99.50;;;;;;5044671;28;20779;-28
2023/06/29 01:55:11;;;;;;;18.63;14.98;;;24.50;99.50;;;;;;5045098;28;20211;-28
2023/06/29 01:57:40;;;;;;;18.45;14.52;;;24.50;99.60;;;;;;5044873;28;20228;-28
2023/06/29 02:00:11;;;;;;;16.83;14.73;;;24.40;99.50;;;;;;5043013;28;20725;-28
2023/06/29 02:02:41;;;;;;;18.65;15.52;;;24.40;99.60;;;;;;5044526;28;20197;-27
2023/06/29 02:05:09;;;;;;;20.48;15.00;;;24.40;99.60;;;;;;5043154;28;20200;-28
2023/06/29 02:07:39;;;;;;;18.15;14.70;;;24.40;99.60;;;;;;5044720;28;20590;-28
2023/06/29 02:10:11;;;;;;;19.60;14.98;;;24.40;99.60;;;;;;5044626;28;20207;-28
2023/06/29 02:12:42;;;;;;;20.35;14.77;;;24.40;99.70;;;;;;5042622;28;20212;-28
2023/06/29 02:15:10;;;;;;;20.65;15.75;;;24.30;99.60;;;;;;5076457;28;20741;-27
2023/06/29 02:17:37;;;;;;;21.13;15.25;;;24.30;99.60;;;;;;5044204;28;20282;-28
2023/06/29 02:20:09;;;;;;;20.73;15.93;;;24.30;99.70;;;;;;5042794;28;20361;-27
2023/06/29 02:22:38;;;;;;;22.83;15.85;;;24.30;99.70;;;;;;5043340;28;20514;-28
2023/06/29 02:25:07;;;;;;;19.90;15.25;;;24.20;99.70;;;;;;5042854;28;20197;-33
2023/06/29 02:27:39;;;;;;;20.55;15.90;;;24.20;99.70;;;;;;5042315;28;20297;-32
2023/06/29 02:30:07;;;;;;;20.00;15.50;;;24.20;99.70;;;;;;5044558;28;20227;-33
2023/06/29 02:32:39;;;;;;;20.13;15.60;;;24.20;99.70;;;;;;5042730;28;20523;-33
2023/06/29 02:35:09;;;;;;;20.95;15.82;;;24.10;99.70;;;;;;5044291;28;20211;-32
2023/06/29 02:37:36;;;;;;;18.92;15.15;;;24.10;99.70;;;;;;5042300;28;20228;-32
2023/06/29 02:40:07;;;;;;;19.55;15.07;;;24.10;99.80;;;;;;5042357;28;21054;-33
2023/06/29 02:42:36;;;;;;;20.80;15.95;;;24.10;99.80;;;;;;5042743;28;20208;-33
2023/06/29 02:45:06;;;;;;;22.10;15.90;;;24.00;99.80;;;;;;5042514;28;20709;-33
2023/06/29 02:47:38;;;;;;;19.58;15.82;;;24.00;99.80;;;;;;5044067;28;20244;-32
2023/06/29 02:50:08;;;;;;;18.80;14.82;;;24.00;99.80;;;;;;5042109;28;20203;-33
2023/06/29 02:52:35;;;;;;;19.67;14.85;;;24.00;99.90;;;;;;5043523;28;20698;-32
2023/06/29 02:55:03;;;;;;;20.75;16.02;;;24.00;99.90;;;;;;5043477;28;20200;-33
2023/06/29 02:57:33;;;;;;;19.83;15.82;;;23.90;99.90;;;;;;5025989;28;20783;-28
2023/06/29 03:00:00;;;;;;;18.70;14.70;;;23.90;99.90;;;;;;5041716;28;20200;-28
2023/06/29 03:02:30;;;;;;;20.40;15.25;;;23.90;99.90;;;;;;5043442;28;20200;-27
2023/06/29 03:04:59;;;;;;;21.55;16.55;;;23.90;99.90;;;;;;5042570;28;20212;-28
2023/06/29 03:07:29;;;;;;;19.65;15.32;;;23.90;99.90;;;;;;5043128;28;20216;-27
2023/06/29 03:09:56;;;;;;;18.92;15.70;;;23.90;99.90;;;;;;5041992;28;20289;-33
2023/06/29 03:12:28;;;;;;;22.17;15.10;;;23.90;99.90;;;;;;5043331;28;20200;-32
2023/06/29 03:14:58;;;;;;;21.77;15.55;;;23.90;99.90;;;;;;5042601;28;20203;-32
2023/06/29 03:17:27;;;;;;;21.35;15.65;;;23.80;99.90;;;;;;5043669;28;20227;-33
2023/06/29 03:19:57;;;;;;;22.52;16.23;;;23.80;99.90;;;;;;5043430;28;20196;-33
2023/06/29 03:22:26;;;;;;;22.17;16.83;;;23.80;99.90;;;;;;5043275;28;20285;-32
2023/06/29 03:24:56;;;;;;;21.90;15.95;;;23.80;99.90;;;;;;5043412;28;20306;-33
2023/06/29 03:27:23;;;;;;;19.88;15.52;;;23.80;99.90;;;;;;5041454;28;20215;-32
2023/06/29 03:29:52;;;;;;;20.00;15.43;;;23.80;99.90;;;;;;5043151;28;20204;-33
2023/06/29 03:32:22;;;;;;;23.05;16.52;;;23.80;99.90;;;;;;5042972;28;20291;-32
2023/06/29 03:34:51;;;;;;;19.42;15.48;;;23.80;99.90;;;;;;5041467;28;20196;-32
2023/06/29 03:37:19;;;;;;;20.77;16.17;;;23.80;99.90;;;;;;5041165;28;20614;-33
2023/06/29 03:39:51;;;;;;;19.80;15.88;;;23.80;99.90;;;;;;5041327;28;20310;-32
2023/06/29 03:42:18;;;;;;;20.25;16.05;;;23.80;99.90;;;;;;5041932;28;20192;-32
2023/06/29 03:44:47;;;;;;;22.00;16.35;;;23.80;99.90;;;;;;5042872;28;20208;-33
2023/06/29 03:47:15;;;;;;;21.73;15.57;;;23.70;99.90;;;;;;5040994;28;20207;-33
2023/06/29 03:49:42;;;;;;;21.42;15.95;;;23.70;99.90;;;;;;5042890;28;20689;-33
2023/06/29 03:52:09;;;;;;;23.73;16.65;;;23.70;99.90;;;;;;5057614;28;20208;-33
2023/06/29 03:54:39;;;;;;;20.70;16.48;;;23.70;99.90;;;;;;5041081;28;20200;-32
2023/06/29 03:57:06;;;;;;;25.25;16.58;;;23.70;99.90;;;;;;5041101;28;20783;-27
2023/06/29 03:59:36;;;;;;;20.90;16.27;;;23.70;99.90;;;;;;5043264;28;20192;-27
2023/06/29 04:02:03;;;;;;;20.90;15.50;;;23.70;99.90;;;;;;5042921;28;20207;-28
2023/06/29 04:04:35;;;;;;;23.25;17.23;;;23.70;99.90;;;;;;5042803;28;20204;-28
2023/06/29 04:07:03;;;;;;;22.15;16.58;;;23.70;99.90;;;;;;5042806;28;20210;-28
2023/06/29 04:09:30;;;;;;;21.75;16.55;;;23.70;99.90;;;;;;5040827;28;20227;-27
2023/06/29 04:12:00;;;;;;;23.35;17.15;;;23.70;99.90;;;;;;5042830;28;20291;-28
2023/06/29 04:14:27;;;;;;;23.58;17.35;;;23.70;99.90;;;;;;5042734;28;20620;-32
2023/06/29 04:16:54;;;;;;;22.42;17.25;;;23.70;99.90;;;;;;5040407;28;20231;-32
2023/06/29 04:19:22;;;;;;;21.85;17.13;;;23.70;99.90;;;;;;5042500;28;20233;-32
2023/06/29 04:21:52;;;;;;;22.65;17.08;;;23.70;99.90;;;;;;5040730;28;20269;-32
2023/06/29 04:24:19;;;;;;;23.85;17.98;;;23.70;99.90;;;;;;5042277;28;20773;-33
2023/06/29 04:26:46;;;;;;;21.92;17.60;;;23.70;99.90;;;;;;5042713;28;20207;-32
2023/06/29 04:29:18;;;;;;;24.60;17.42;;;23.70;99.90;;;;;;5040478;28;20675;-32
2023/06/29 04:31:46;;;;;;;21.90;17.60;;;23.70;99.90;;;;;;5042404;28;20199;-34
2023/06/29 04:34:17;;;;;;;25.17;17.50;;;23.70;99.90;;;;;;5040463;28;20200;-33
2023/06/29 04:36:47;;;;;;;22.30;17.23;;;23.70;99.90;;;;;;5042156;28;20220;-33
2023/06/29 04:39:15;;;;;;;24.20;17.65;;;23.70;99.90;;;;;;5042107;28;20625;-33
2023/06/29 04:41:42;;;;;;;23.20;18.33;;;23.60;99.90;;;;;;5041869;28;20208;-32
2023/06/29 04:44:12;;;;;;;25.63;18.08;;;23.60;99.90;;;;;;5039938;28;20232;-32
2023/06/29 04:46:39;;;;;;;26.33;18.58;;;23.60;99.90;;;;;;5041857;28;20725;-33
2023/06/29 04:49:07;;;;;;;26.08;18.77;;;23.60;99.90;;;;;;5040028;28;20297;-33
2023/06/29 04:51:37;;;;;;;25.50;19.63;;;23.60;99.90;;;;;;5056925;28;20685;-33
2023/06/29 04:54:08;;;;;;;23.13;18.80;;;23.60;99.90;;;;;;5040514;28;20668;-33
2023/06/29 04:56:35;;;;;;;25.88;19.05;;;23.60;99.90;;;;;;5039933;28;20216;-32
2023/06/29 04:59:02;;;;;;;25.10;18.38;;;23.60;99.90;;;;;;5041849;28;20203;-33
2023/06/29 05:01:30;;;;;;;26.13;18.63;;;23.60;99.90;;;;;;5040418;28;20223;-28
2023/06/29 05:03:59;;;;;;;24.20;19.13;;;23.70;99.90;;;;;;5042420;28;20277;-27
2023/06/29 05:06:31;;;;;;;24.98;18.58;;;23.70;99.90;;;;;;5040493;28;20283;-27
2023/06/29 05:08:58;;;;;;;24.63;17.98;;;23.70;99.90;;;;;;5041575;28;20200;-28
2023/06/29 05:11:28;;;;;;;24.63;17.83;;;23.70;99.90;;;;;;5041775;28;20236;-28
2023/06/29 05:13:55;;;;;;;23.33;18.67;;;23.70;99.90;;;;;;5039828;28;20208;-28
2023/06/29 05:16:24;;;;;;;23.52;18.27;;;23.70;99.90;;;;;;5042122;28;20678;-27
2023/06/29 05:18:52;;;;;;;26.20;19.13;;;23.70;99.90;;;;;;5042375;28;20243;-27
2023/06/29 05:21:19;;;;;;;24.75;18.15;;;23.70;99.90;;;;;;5041684;28;20279;-27
2023/06/29 05:23:48;;;;;;;25.90;18.27;;;23.70;99.90;;;;;;5041748;28;20240;-27
2023/06/29 05:26:18;;;;;;;23.33;18.13;;;23.70;99.90;;;;;;5040324;28;20196;-33
2023/06/29 05:28:45;;;;;;;26.77;18.65;;;23.70;99.90;;;;;;5043730;28;20204;-32
2023/06/29 05:31:31;;;;;;;27.70;18.63;;;23.70;99.90;;;;;;5044032;28;20291;-33
2023/06/29 05:34:00;;;;;;;26.33;19.20;;;23.70;99.90;;;;;;5045598;28;20196;-32
2023/06/29 05:36:29;;;;;;;24.20;19.35;;;23.70;99.90;;;;;;5045767;28;20220;-32
2023/06/29 05:38:59;;;;;;;24.98;18.85;;;23.70;99.90;;;;;;5045000;28;20200;-32
2023/06/29 05:41:31;;;;;;;23.88;18.70;;;23.80;99.90;;;;;;5043674;28;20602;-33
2023/06/29 05:44:03;;;;;;;24.80;18.27;;;23.80;99.90;;;;;;5043390;28;20207;-33
2023/06/29 05:46:35;;;;;;;25.92;19.90;;;23.80;99.90;;;;;;5043580;28;20196;-32
2023/06/29 05:49:05;;;;;;;24.90;19.13;;;23.80;99.90;;;;;;5043250;28;20226;-33
2023/06/29 05:51:38;;;;;;;25.05;19.65;;;23.80;99.90;;;;;;5045331;28;20248;-33
2023/06/29 05:54:05;;;;;;;25.17;18.60;;;23.80;99.90;;;;;;5044803;28;20204;-33
2023/06/29 05:56:35;;;;;;;26.92;19.85;;;23.80;99.90;;;;;;5043036;28;20193;-32
2023/06/29 05:59:02;;;;;;;27.30;20.17;;;23.90;99.90;;;;;;5044812;28;20200;-33
2023/06/29 06:01:29;;;;;;;26.30;19.00;;;23.90;99.90;;;;;;5043187;28;20626;-33
2023/06/29 06:04:02;;;;;;;26.50;19.02;;;23.90;99.90;;;;;;5044862;28;20214;-33
2023/06/29 06:06:30;;;;;;;26.95;19.05;;;24.00;99.90;;;;;;5043601;28;20546;-32
2023/06/29 06:08:58;;;;;;;27.25;19.52;;;24.00;99.90;;;;;;5042684;28;20208;-32
2023/06/29 06:11:30;;;;;;;25.40;19.17;;;24.00;99.90;;;;;;5045152;28;20200;-33
2023/06/29 06:14:02;;;;;;;29.08;20.02;;;24.10;99.90;;;;;;5043427;28;20279;-32
2023/06/29 06:16:35;;;;;;;26.80;18.98;;;24.10;99.90;;;;;;5043111;28;20196;-33
2023/06/29 06:19:02;;;;;;;29.30;19.40;;;24.10;99.90;;;;;;5042567;28;20279;-32
2023/06/29 06:21:32;;;;;;;26.33;20.10;;;24.20;99.90;;;;;;5043108;28;20196;-32
2023/06/29 06:23:59;;;;;;;29.67;20.25;;;24.30;99.90;;;;;;5042961;28;20761;-33
2023/06/29 06:26:26;;;;;;;26.58;19.77;;;24.30;99.90;;;;;;5042740;28;20200;-33
2023/06/29 06:28:56;;;;;;;27.67;20.77;;;24.30;99.90;;;;;;5044448;28;20204;-27
2023/06/29 06:31:25;;;;;;;24.08;19.60;;;24.40;99.90;;;;;;5042442;28;20228;-28
2023/06/29 06:34:01;;;;;;;26.85;20.80;;;24.50;99.90;;;;;;5042343;28;20227;-28
2023/06/29 06:36:32;;;;;;;26.08;20.90;;;24.50;99.90;;;;;;5043814;28;20192;-27
2023/06/29 06:39:02;;;;;;;29.27;20.08;;;24.50;99.90;;;;;;5041582;28;20224;-27
2023/06/29 06:41:34;;;;;;;25.52;19.17;;;24.60;99.90;;;;;;5044131;28;20200;-27
2023/06/29 06:44:01;;;;;;;23.92;19.85;;;24.70;99.90;;;;;;5042197;28;20295;-27
2023/06/29 06:46:32;;;;;;;29.35;19.95;;;24.70;99.90;;;;;;5044227;28;20193;-27
2023/06/29 06:48:59;;;;;;;24.95;20.48;;;24.80;99.90;;;;;;5042065;28;20286;-28
2023/06/29 06:51:29;;;;;;;25.48;20.83;;;24.80;99.90;;;;;;5043795;28;20564;-28
2023/06/29 06:53:56;;;;;;;28.73;21.63;;;24.90;99.90;;;;;;5041985;28;20300;-27
2023/06/29 06:56:26;;;;;;;28.75;20.95;;;24.90;99.90;;;;;;5025938;28;20280;-33
2023/06/29 06:58:53;;;;;;;29.00;20.92;;;25.00;99.90;;;;;;5042264;28;20702;-33
2023/06/29 07:01:28;;;;;;;28.65;21.70;;;25.00;99.90;;;;;;5041787;28;20226;-33
2023/06/29 07:03:55;;;;;;;25.95;20.55;;;25.00;99.90;;;;;;5043887;28;20257;-33
2023/06/29 07:06:22;;;;;;;29.02;22.17;;;25.00;99.90;;;;;;5043972;28;20196;-33
2023/06/29 07:08:50;;;;;;;30.85;21.23;;;25.00;99.90;;;;;;5025769;28;20644;-33
2023/06/29 07:11:20;;;;;;;31.20;23.05;;;25.00;99.90;;;;;;5026256;28;20255;-36
2023/06/29 07:13:47;;;;;;;34.05;23.45;;;25.00;99.90;;;;;;5043345;28;20297;-33
2023/06/29 07:16:15;;;;;;;31.05;22.88;;;25.00;99.90;;;;;;5042030;28;20694;-33
2023/06/29 07:19:08;;;;;;;32.15;23.23;;;25.00;99.90;;;;;;5041899;28;20239;-33
2023/06/29 07:21:38;;;;;;;30.23;23.20;;;25.00;99.90;;;;;;5058044;28;20580;-35
2023/06/29 07:24:06;;;;;;;33.15;21.58;;;25.00;99.90;;;;;;5041802;28;20684;-33
2023/06/29 07:26:37;;;;;;;31.27;22.08;;;25.00;99.90;;;;;;5041486;28;20258;-33
2023/06/29 07:29:06;;;;;;;30.92;23.33;;;25.00;99.90;;;;;;5043449;28;20200;-33
2023/06/29 07:31:35;;;;;;;26.38;22.20;;;24.90;99.90;;;;;;5041518;28;20250;-33
2023/06/29 07:34:07;;;;;;;35.80;23.10;;;24.90;99.90;;;;;;5057336;28;20287;-33
2023/06/29 07:36:36;;;;;;;30.58;22.60;;;24.90;99.90;;;;;;5041480;28;20208;-33
2023/06/29 07:39:03;;;;;;;34.13;23.75;;;24.90;99.90;;;;;;5043132;28;20224;-32
2023/06/29 07:41:31;;;;;;;31.75;23.27;;;24.90;99.90;;;;;;5040800;28;20226;-32
2023/06/29 07:43:59;;;;;;;29.90;23.38;;;25.00;99.90;;;;;;5042659;28;20200;-32
2023/06/29 07:46:27;;;;;;;30.17;23.48;;;25.00;99.90;;;;;;5041127;28;20200;-32
2023/06/29 07:48:58;;;;;;;37.50;23.30;;;25.00;99.90;;;;;;5040998;28;20298;-32
2023/06/29 07:51:32;;;;;;;34.85;25.20;;;25.00;99.90;;;;;;5043076;28;20579;-33
2023/06/29 07:54:03;;;;;;;36.63;23.42;;;25.00;99.90;;;;;;5042960;28;20211;-32
2023/06/29 07:56:33;;;;;;;31.88;23.33;;;25.00;99.90;;;;;;5042703;28;20211;-32
2023/06/29 07:59:04;;;;;;;34.05;24.45;;;25.00;99.90;;;;;;5042607;28;20291;-33
2023/06/29 08:01:39;;;;;;;31.63;23.75;;;25.00;99.90;;;;;;5042582;28;20227;-33
2023/06/29 08:04:09;;;;;;;32.58;22.98;;;25.00;99.90;;;;;;5042666;28;20341;-33
2023/06/29 08:06:43;;;;;;;33.45;24.17;;;25.00;99.90;;;;;;5041923;28;20207;-32
2023/06/29 08:09:18;;;;;;;30.77;22.60;;;25.00;99.90;;;;;;5042310;28;20227;-28
2023/06/29 08:11:49;;;;;;;29.00;22.80;;;25.10;99.90;;;;;;5041432;28;20211;-27
2023/06/29 08:14:16;;;;;;;33.35;25.05;;;25.10;99.90;;;;;;5040777;28;20199;-27
2023/06/29 08:16:43;;;;;;;28.80;22.92;;;25.10;99.90;;;;;;5041075;28;20204;-27
2023/06/29 08:19:14;;;;;;;31.42;23.13;;;25.10;99.90;;;;;;5040773;28;20309;-27
2023/06/29 08:21:47;;;;;;;33.28;24.10;;;25.10;99.90;;;;;;5042700;28;20220;-27
2023/06/29 08:24:14;;;;;;;34.78;25.17;;;25.10;99.90;;;;;;5042065;28;20207;-27
2023/06/29 08:26:46;;;;;;;33.38;24.13;;;25.10;99.90;;;;;;5042111;28;20227;-27
2023/06/29 08:29:18;;;;;;;31.10;22.75;;;25.20;99.90;;;;;;5056949;28;20670;-27
2023/06/29 08:31:45;;;;;;;30.25;23.80;;;25.20;99.90;;;;;;5056986;28;20205;-26
2023/06/29 08:34:15;;;;;;;32.25;24.90;;;25.20;99.90;;;;;;5041988;28;20503;-26
2023/06/29 08:36:45;;;;;;;29.63;23.17;;;25.20;99.90;;;;;;5040573;28;20223;-27
2023/06/29 08:39:12;;;;;;;30.20;24.30;;;25.30;99.90;;;;;;5042586;28;20241;-26
2023/06/29 08:41:44;;;;;;;30.05;23.70;;;25.30;99.90;;;;;;5042552;28;20200;-27
2023/06/29 08:44:14;;;;;;;33.08;23.77;;;25.30;99.90;;;;;;5039841;28;20192;-26
2023/06/29 08:46:43;;;;;;;31.17;23.95;;;25.30;99.90;;;;;;5040492;28;20266;-26
2023/06/29 08:49:14;;;;;;;30.83;23.60;;;25.30;99.90;;;;;;5040067;28;20210;-27
2023/06/29 08:51:51;;;;;;;29.00;23.45;;;25.30;99.90;;;;;;5040408;28;20201;-26
2023/06/29 08:54:19;;;;;;;30.83;23.95;;;25.40;99.90;;;;;;5042011;28;20208;-26
2023/06/29 08:56:48;;;;;;;36.95;23.48;;;25.40;99.90;;;;;;5040625;28;20207;-26
2023/06/29 08:59:16;;;;;;;29.85;24.08;;;25.50;99.90;;;;;;5040412;28;20224;-26
2023/06/29 09:01:46;;;;;;;32.47;24.48;;;25.50;99.90;;;;;;5042435;28;20694;-26
2023/06/29 09:04:14;;;;;;;39.08;25.77;;;25.50;99.90;;;;;;5045960;28;20806;-26
2023/06/29 09:06:44;;;;;;;35.58;24.35;;;25.60;99.90;;;;;;5043995;28;20204;-26
2023/06/29 09:09:16;;;;;;;33.10;25.25;;;25.60;99.90;;;;;;5045669;28;20705;-25
2023/06/29 09:11:48;;;;;;;32.33;24.98;;;25.60;99.90;;;;;;5043854;28;20200;-25
2023/06/29 09:14:17;;;;;;;33.70;26.13;;;25.70;99.90;;;;;;5043835;28;20212;-26
2023/06/29 09:16:58;;;;;;;34.90;26.80;;;25.70;99.90;;;;;;5043812;28;20204;-26
2023/06/29 09:19:29;;;;;;;32.55;26.00;;;25.70;99.90;;;;;;5044989;28;20325;-26
2023/06/29 09:22:03;;;;;;;34.30;27.00;;;25.70;99.90;;;;;;5043571;28;20232;-26
2023/06/29 09:24:34;;;;;;;32.38;26.88;;;25.80;99.90;;;;;;5045367;28;20764;-26
2023/06/29 09:27:10;;;;;;;40.30;26.30;;;25.80;99.90;;;;;;5045513;28;20208;-26
2023/06/29 09:29:50;;;;;;;32.53;26.17;;;25.80;99.90;;;;;;5043442;28;20208;-33
2023/06/29 09:32:19;;;;;;;37.45;26.75;;;25.80;99.90;;;;;;5043626;28;20277;-33
2023/06/29 09:34:50;;;;;;;39.45;27.70;;;25.80;99.90;;;;;;5044977;28;20682;-34
2023/06/29 09:37:20;;;;;;;35.85;26.95;;;25.80;99.90;;;;;;5043269;28;20196;-33
2023/06/29 09:40:09;;;;;;;37.65;27.55;;;25.70;99.90;;;;;;5045450;28;20211;-33
2023/06/29 09:42:38;;;;;;;35.58;25.77;;;25.70;99.90;;;;;;5045308;28;20230;-34
2023/06/29 09:45:11;;;;;;;35.25;26.48;;;25.70;99.90;;;;;;5045272;28;20203;-33
2023/06/29 09:47:42;;;;;;;35.42;27.58;;;25.70;99.90;;;;;;5044865;28;20204;-33
2023/06/29 09:50:19;;;;;;;38.95;26.92;;;25.70;99.90;;;;;;5044830;28;20220;-34
2023/06/29 09:52:51;;;;;;;36.75;26.17;;;25.70;99.90;;;;;;5042686;28;20200;-35
2023/06/29 09:55:29;;;;;;;37.55;27.60;;;25.80;99.90;;;;;;5027790;28;20683;-33
2023/06/29 09:57:58;;;;;;;35.63;26.30;;;25.80;99.90;;;;;;5044644;28;20725;-37
2023/06/29 10:00:27;;;;;;;33.85;25.80;;;25.80;99.90;;;;;;5042563;28;20222;-35
2023/06/29 10:02:57;;;;;;;36.75;27.10;;;25.80;99.90;;;;;;5044223;28;20200;-38
2023/06/29 10:05:31;;;;;;;38.90;26.92;;;25.90;99.90;;;;;;5044260;28;20224;-33
2023/06/29 10:08:05;;;;;;;36.15;26.38;;;25.90;99.90;;;;;;5044065;28;20638;-33
2023/06/29 10:10:38;;;;;;;37.40;26.23;;;25.90;99.90;;;;;;5042718;28;20807;-33
2023/06/29 10:13:09;;;;;;;34.15;26.88;;;25.90;99.90;;;;;;5044122;28;20631;-32
2023/06/29 10:15:41;;;;;;;35.63;27.13;;;25.90;99.90;;;;;;5042720;28;20721;-33
2023/06/29 10:18:11;;;;;;;35.33;27.08;;;25.90;99.90;;;;;;5042278;28;20231;-33
2023/06/29 10:20:46;;;;;;;36.17;27.35;;;25.90;99.90;;;;;;5044604;28;20232;-33
2023/06/29 10:23:19;;;;;;;34.70;27.60;;;25.90;99.90;;;;;;5044065;28;20235;-33
2023/06/29 10:25:54;;;;;;;31.90;27.25;;;26.00;99.90;;;;;;5044154;28;20211;-33
2023/06/29 10:28:25;;;;;;;37.45;27.67;;;26.00;99.90;;;;;;5044350;28;20208;-33
2023/06/29 10:31:01;;;;;;;33.58;27.40;;;26.00;99.90;;;;;;5044469;28;20798;-33
2023/06/29 10:33:29;;;;;;;34.15;26.50;;;26.00;99.90;;;;;;5041811;28;20668;-35
2023/06/29 10:35:57;;;;;;;36.03;27.85;;;26.00;99.90;;;;;;5043619;28;20269;-32
2023/06/29 10:38:32;;;;;;;37.97;29.30;;;26.00;99.90;;;;;;5025882;28;20243;-33
2023/06/29 10:41:00;;;;;;;35.53;26.52;;;26.00;99.90;;;;;;5043391;28;20582;-33
2023/06/29 10:43:31;;;;;;;36.28;27.67;;;26.00;99.90;;;;;;5042109;28;20196;-33
2023/06/29 10:46:01;;;;;;;39.22;29.35;;;26.00;99.90;;;;;;5059043;28;20204;-32
2023/06/29 10:48:28;;;;;;;34.58;27.75;;;26.00;99.90;;;;;;5043999;28;20200;-33
2023/06/29 10:51:18;;;;;;;35.92;28.27;;;26.00;99.90;;;;;;5043610;28;20208;-33
2023/06/29 10:53:48;;;;;;;33.78;27.15;;;26.00;99.90;;;;;;5043514;28;20706;-33
2023/06/29 10:56:31;;;;;;;34.40;27.95;;;26.10;99.90;;;;;;5042012;28;20224;-33
2023/06/29 10:58:58;;;;;;;37.80;28.35;;;26.10;99.90;;;;;;5043375;28;20361;-33
2023/06/29 11:01:26;;;;;;;45.83;29.75;;;26.10;99.90;;;;;;5043619;28;20214;-33
2023/06/29 11:03:54;;;;;;;42.75;29.80;;;26.10;99.90;;;;;;5041643;28;20264;-33
2023/06/29 11:06:25;;;;;;;39.92;28.23;;;26.10;99.90;;;;;;5057531;28;20675;-33
2023/06/29 11:09:10;;;;;;;33.85;27.67;;;26.10;99.90;;;;;;5041722;28;20211;-34
2023/06/29 11:11:38;;;;;;;38.65;28.65;;;26.10;99.90;;;;;;5041724;28;20203;-33
2023/06/29 11:14:08;;;;;;;36.13;28.05;;;26.20;99.90;;;;;;5041621;28;20719;-33
2023/06/29 11:16:41;;;;;;;37.03;27.95;;;26.20;99.90;;;;;;5043614;28;20288;-26
2023/06/29 11:19:08;;;;;;;34.72;27.70;;;26.30;99.90;;;;;;5042814;28;20227;-26
2023/06/29 11:22:00;;;;;;;35.22;27.38;;;26.30;99.90;;;;;;5043208;28;20347;-27
2023/06/29 11:24:30;;;;;;;35.55;27.90;;;26.40;99.90;;;;;;5042486;28;20207;-26
2023/06/29 11:27:00;;;;;;;39.65;28.55;;;26.40;99.90;;;;;;5042898;28;20852;-26
2023/06/29 11:29:30;;;;;;;37.25;27.73;;;26.50;99.90;;;;;;5042827;28;20200;-26
2023/06/29 11:32:01;;;;;;;36.20;27.30;;;26.50;99.90;;;;;;5041394;28;20230;-27
2023/06/29 11:34:28;;;;;;;38.08;27.95;;;26.60;99.90;;;;;;5043167;28;20203;-26
2023/06/29 11:36:57;;;;;;;40.10;29.25;;;26.70;99.90;;;;;;5042793;28;20232;-26
2023/06/29 11:39:41;;;;;;;34.63;27.90;;;26.70;99.90;;;;;;5042555;28;20228;-26
2023/06/29 11:42:21;;;;;;;36.45;28.55;;;26.70;99.90;;;;;;5042699;28;20757;-26
2023/06/29 11:44:51;;;;;;;37.05;27.77;;;26.80;99.90;;;;;;5042721;28;20215;-27
2023/06/29 11:47:19;;;;;;;35.83;29.27;;;26.80;99.90;;;;;;5041025;28;20287;-26
2023/06/29 11:50:07;;;;;;;38.65;29.17;;;26.80;99.90;;;;;;5040483;28;20207;-26
2023/06/29 11:52:35;;;;;;;41.30;28.77;;;26.80;99.90;;;;;;5057628;28;20204;-27
2023/06/29 11:55:07;;;;;;;36.22;29.33;;;26.80;99.90;;;;;;5040541;28;20208;-27
2023/06/29 11:57:38;;;;;;;37.83;29.42;;;26.90;99.90;;;;;;5056463;28;20444;-27
2023/06/29 12:00:18;;;;;;;35.95;28.60;;;26.90;99.90;;;;;;5024007;28;20505;-26
2023/06/29 12:02:47;;;;;;;37.13;28.33;;;27.00;99.90;;;;;;5040401;28;20241;-26
2023/06/29 12:05:15;;;;;;;38.00;29.10;;;27.00;99.90;;;;;;5040876;28;20200;-27
2023/06/29 12:07:46;;;;;;;35.92;28.67;;;27.00;99.90;;;;;;5042371;28;20295;-26
2023/06/29 12:10:24;;;;;;;38.92;30.23;;;27.10;99.90;;;;;;5041992;28;20219;-26
2023/06/29 12:12:56;;;;;;;35.30;28.25;;;27.10;99.90;;;;;;5040721;28;20203;-26
2023/06/29 12:15:29;;;;;;;37.70;28.48;;;27.20;99.90;;;;;;5042293;28;20213;-26
2023/06/29 12:18:12;;;;;;;34.55;27.65;;;27.20;99.90;;;;;;5040500;28;20208;-26
2023/06/29 12:20:42;;;;;;;33.42;28.15;;;27.30;99.90;;;;;;5041808;28;20250;-26
2023/06/29 12:23:12;;;;;;;35.20;27.88;;;27.30;99.90;;;;;;5041843;28;20236;-26
2023/06/29 12:25:47;;;;;;;42.80;30.13;;;27.30;99.90;;;;;;5024165;28;20200;-27
2023/06/29 12:28:15;;;;;;;37.17;29.40;;;27.40;99.90;;;;;;5040171;28;20215;-26
2023/06/29 12:30:45;;;;;;;36.17;28.00;;;27.40;99.90;;;;;;5042222;28;20200;-26
2023/06/29 12:33:16;;;;;;;36.63;29.02;;;27.50;99.90;;;;;;5042449;28;20199;-26
2023/06/29 12:35:55;;;;;;;42.25;29.23;;;27.60;99.90;;;;;;5043369;28;20192;-33
2023/06/29 12:38:27;;;;;;;36.47;28.45;;;27.70;99.90;;;;;;5045903;28;20734;-33
2023/06/29 12:40:54;;;;;;;37.33;29.98;;;27.70;99.90;;;;;;5044847;28;20291;-32
2023/06/29 12:43:22;;;;;;;37.85;29.45;;;27.80;99.90;;;;;;5045912;28;20772;-32
2023/06/29 12:45:52;;;;;;;37.10;30.42;;;27.80;99.90;;;;;;5045016;28;20349;-32